sensor_id;sensor_type;location;lat;lon;timestamp;temperature;humidity
11079;DHT22;5592;49.234;7.268;2023-06-01T00:02:09;9.90;99.90
11079;DHT22;5592;49.234;7.268;2023-06-01T00:04:35;9.90;99.90
11079;DHT22;5592;49.234;7.268;2023-06-01T00:07:06;9.90;99.90
11079;DHT22;5592;49.234;7.268;2023-06-01T00:09:32;9.80;99.90
11079;DHT22;5592;49.234;7.268;2023-06-01T00:11:58;9.80;99.90
11079;DHT22;5592;49.234;7.268;2023-06-01T00:14:23;9.70;99.90
11079;DHT22;5592;49.234;7.268;2023-06-01T00:16:49;9.70;99.90
11079;DHT22;5592;49.234;7.268;2023-06-01T00:19:15;9.60;99.90
11079;DHT22;5592;49.234;7.268;2023-06-01T00:21:41;9.50;99.90
11079;DHT22;5592;49.234;7.268;2023-06-01T00:24:07;9.50;99.90
11079;DHT22;5592;49.234;7.268;2023-06-01T00:26:32;9.60;99.90
11079;DHT22;5592;49.234;7.268;2023-06-01T00:28:59;9.60;99.90
11079;DHT22;5592;49.234;7.268;2023-06-01T00:31:25;9.60;99.90
11079;DHT22;5592;49.234;7.268;2023-06-01T00:33:51;9.60;99.90
11079;DHT22;5592;49.234;7.268;2023-06-01T00:36:18;9.70;99.90
11079;DHT22;5592;49.234;7.268;2023-06-01T00:38:44;9.70;99.90
11079;DHT22;5592;49.234;7.268;2023-06-01T00:41:09;9.70;99.90
11079;DHT22;5592;49.234;7.268;2023-06-01T00:43:35;9.70;99.90
11079;DHT22;5592;49.234;7.268;2023-06-01T00:46:01;9.70;99.90
11079;DHT22;5592;49.234;7.268;2023-06-01T00:48:27;9.60;99.90
11079;DHT22;5592;49.234;7.268;2023-06-01T00:50:52;9.60;99.90
11079;DHT22;5592;49.234;7.268;2023-06-01T00:53:19;9.60;99.90
11079;DHT22;5592;49.234;7.268;2023-06-01T00:55:46;9.50;99.90
11079;DHT22;5592;49.234;7.268;2023-06-01T00:58:13;9.40;99.90
11079;DHT22;5592;49.234;7.268;2023-06-01T01:00:39;9.40;99.90
11079;DHT22;5592;49.234;7.268;2023-06-01T01:03:06;9.40;99.90
11079;DHT22;5592;49.234;7.268;2023-06-01T01:05:36;9.40;99.90
11079;DHT22;5592;49.234;7.268;2023-06-01T01:11:06;9.40;99.90
11079;DHT22;5592;49.234;7.268;2023-06-01T01:13:58;9.40;99.90
11079;DHT22;5592;49.234;7.268;2023-06-01T01:16:45;9.30;99.90
11079;DHT22;5592;49.234;7.268;2023-06-01T01:19:29;9.30;99.90
11079;DHT22;5592;49.234;7.268;2023-06-01T01:25:16;9.30;99.90
11079;DHT22;5592;49.234;7.268;2023-06-01T01:30:30;9.10;99.90
11079;DHT22;5592;49.234;7.268;2023-06-01T01:32:57;9.00;99.90
11079;DHT22;5592;49.234;7.268;2023-06-01T01:35:26;9.00;99.90
11079;DHT22;5592;49.234;7.268;2023-06-01T01:37:55;9.00;99.90
11079;DHT22;5592;49.234;7.268;2023-06-01T01:40:21;8.90;99.90
11079;DHT22;5592;49.234;7.268;2023-06-01T01:42:48;8.80;99.90
11079;DHT22;5592;49.234;7.268;2023-06-01T01:45:15;8.80;99.90
11079;DHT22;5592;49.234;7.268;2023-06-01T01:50:18;8.70;99.90
11079;DHT22;5592;49.234;7.268;2023-06-01T01:52:46;8.60;99.90
11079;DHT22;5592;49.234;7.268;2023-06-01T01:55:12;8.60;99.90
11079;DHT22;5592;49.234;7.268;2023-06-01T01:57:41;8.60;99.90
11079;DHT22;5592;49.234;7.268;2023-06-01T02:00:07;8.50;99.90
11079;DHT22;5592;49.234;7.268;2023-06-01T02:02:33;8.40;99.90
11079;DHT22;5592;49.234;7.268;2023-06-01T02:04:58;8.40;99.90
11079;DHT22;5592;49.234;7.268;2023-06-01T02:07:24;8.40;99.90
11079;DHT22;5592;49.234;7.268;2023-06-01T02:09:49;8.40;99.90
11079;DHT22;5592;49.234;7.268;2023-06-01T02:12:15;8.50;99.90
11079;DHT22;5592;49.234;7.268;2023-06-01T02:14:41;8.40;99.90
11079;DHT22;5592;49.234;7.268;2023-06-01T02:17:07;8.40;99.90
11079;DHT22;5592;49.234;7.268;2023-06-01T02:19:33;8.40;99.90
11079;DHT22;5592;49.234;7.268;2023-06-01T02:21:58;8.30;99.90
11079;DHT22;5592;49.234;7.268;2023-06-01T02:24:24;8.30;99.90
11079;DHT22;5592;49.234;7.268;2023-06-01T02:26:50;8.30;99.90
11079;DHT22;5592;49.234;7.268;2023-06-01T02:29:20;8.20;99.90
11079;DHT22;5592;49.234;7.268;2023-06-01T02:31:48;8.20;99.90
11079;DHT22;5592;49.234;7.268;2023-06-01T02:34:14;8.10;99.90
11079;DHT22;5592;49.234;7.268;2023-06-01T02:36:40;8.10;99.90
11079;DHT22;5592;49.234;7.268;2023-06-01T02:39:06;8.10;99.90
11079;DHT22;5592;49.234;7.268;2023-06-01T02:41:32;8.00;99.90
11079;DHT22;5592;49.234;7.268;2023-06-01T02:43:57;8.10;99.90
11079;DHT22;5592;49.234;7.268;2023-06-01T02:46:23;8.10;99.90
11079;DHT22;5592;49.234;7.268;2023-06-01T02:48:48;8.10;99.90
11079;DHT22;5592;49.234;7.268;2023-06-01T02:51:14;8.10;99.90
11079;DHT22;5592;49.234;7.268;2023-06-01T02:53:41;8.10;99.90
11079;DHT22;5592;49.234;7.268;2023-06-01T02:56:06;8.00;99.90
11079;DHT22;5592;49.234;7.268;2023-06-01T02:58:32;8.10;99.90
11079;DHT22;5592;49.234;7.268;2023-06-01T03:00:57;8.00;99.90
11079;DHT22;5592;49.234;7.268;2023-06-01T03:03:27;8.00;99.90
11079;DHT22;5592;49.234;7.268;2023-06-01T03:05:53;8.10;99.90
11079;DHT22;5592;49.234;7.268;2023-06-01T03:08:19;8.00;99.90
11079;DHT22;5592;49.234;7.268;2023-06-01T03:10:45;8.00;99.90
11079;DHT22;5592;49.234;7.268;2023-06-01T03:13:11;8.00;99.90
11079;DHT22;5592;49.234;7.268;2023-06-01T03:15:37;7.90;99.90
11079;DHT22;5592;49.234;7.268;2023-06-01T03:18:03;7.90;99.90
11079;DHT22;5592;49.234;7.268;2023-06-01T03:20:31;7.90;99.90
11079;DHT22;5592;49.234;7.268;2023-06-01T03:22:56;7.90;99.90
11079;DHT22;5592;49.234;7.268;2023-06-01T03:25:22;7.90;99.90
11079;DHT22;5592;49.234;7.268;2023-06-01T03:27:48;7.80;99.90
11079;DHT22;5592;49.234;7.268;2023-06-01T03:30:13;7.80;99.90
11079;DHT22;5592;49.234;7.268;2023-06-01T03:32:40;7.90;99.90
11079;DHT22;5592;49.234;7.268;2023-06-01T03:35:07;7.90;99.90
11079;DHT22;5592;49.234;7.268;2023-06-01T03:37:39;7.90;99.90
11079;DHT22;5592;49.234;7.268;2023-06-01T03:40:05;7.90;99.90
11079;DHT22;5592;49.234;7.268;2023-06-01T03:42:40;7.90;99.90
11079;DHT22;5592;49.234;7.268;2023-06-01T03:45:06;7.80;99.90
11079;DHT22;5592;49.234;7.268;2023-06-01T03:47:32;7.80;99.90
11079;DHT22;5592;49.234;7.268;2023-06-01T03:49:59;7.80;99.90
11079;DHT22;5592;49.234;7.268;2023-06-01T03:52:28;7.80;99.90
11079;DHT22;5592;49.234;7.268;2023-06-01T03:54:55;7.90;99.90
11079;DHT22;5592;49.234;7.268;2023-06-01T03:57:21;7.90;99.90
11079;DHT22;5592;49.234;7.268;2023-06-01T03:59:47;7.90;99.90
11079;DHT22;5592;49.234;7.268;2023-06-01T04:02:12;7.90;99.90
11079;DHT22;5592;49.234;7.268;2023-06-01T04:04:38;7.90;99.90
11079;DHT22;5592;49.234;7.268;2023-06-01T04:07:07;8.00;99.90
11079;DHT22;5592;49.234;7.268;2023-06-01T04:09:35;8.00;99.90
11079;DHT22;5592;49.234;7.268;2023-06-01T04:12:03;8.10;99.90
11079;DHT22;5592;49.234;7.268;2023-06-01T04:14:28;8.20;99.90
11079;DHT22;5592;49.234;7.268;2023-06-01T04:16:54;8.30;99.90
11079;DHT22;5592;49.234;7.268;2023-06-01T04:19:19;8.30;99.90
11079;DHT22;5592;49.234;7.268;2023-06-01T04:21:45;8.40;99.90
11079;DHT22;5592;49.234;7.268;2023-06-01T04:24:11;8.40;99.90
11079;DHT22;5592;49.234;7.268;2023-06-01T04:26:36;8.50;99.90
11079;DHT22;5592;49.234;7.268;2023-06-01T04:29:02;8.60;99.90
11079;DHT22;5592;49.234;7.268;2023-06-01T04:31:28;8.80;99.90
11079;DHT22;5592;49.234;7.268;2023-06-01T04:33:57;8.90;99.90
11079;DHT22;5592;49.234;7.268;2023-06-01T04:36:27;9.00;99.90
11079;DHT22;5592;49.234;7.268;2023-06-01T04:38:54;9.20;99.90
11079;DHT22;5592;49.234;7.268;2023-06-01T04:41:21;9.50;99.90
11079;DHT22;5592;49.234;7.268;2023-06-01T04:43:50;9.80;99.90
11079;DHT22;5592;49.234;7.268;2023-06-01T04:46:19;10.20;99.90
11079;DHT22;5592;49.234;7.268;2023-06-01T04:48:45;10.40;99.90
11079;DHT22;5592;49.234;7.268;2023-06-01T04:51:12;10.90;99.90
11079;DHT22;5592;49.234;7.268;2023-06-01T04:53:42;11.70;99.90
11079;DHT22;5592;49.234;7.268;2023-06-01T04:56:08;12.80;99.90
11079;DHT22;5592;49.234;7.268;2023-06-01T04:58:34;14.00;99.90
11079;DHT22;5592;49.234;7.268;2023-06-01T05:00:59;15.40;99.90
11079;DHT22;5592;49.234;7.268;2023-06-01T05:03:25;16.90;99.90
11079;DHT22;5592;49.234;7.268;2023-06-01T05:05:51;18.40;99.90
11079;DHT22;5592;49.234;7.268;2023-06-01T05:08:16;19.60;99.90
11079;DHT22;5592;49.234;7.268;2023-06-01T05:10:42;20.60;99.90
11079;DHT22;5592;49.234;7.268;2023-06-01T05:13:07;21.30;99.90
11079;DHT22;5592;49.234;7.268;2023-06-01T05:15:33;22.10;99.90
11079;DHT22;5592;49.234;7.268;2023-06-01T05:17:58;22.90;99.90
11079;DHT22;5592;49.234;7.268;2023-06-01T05:20:24;23.90;99.90
11079;DHT22;5592;49.234;7.268;2023-06-01T05:22:49;25.00;99.90
11079;DHT22;5592;49.234;7.268;2023-06-01T05:25:15;25.40;99.90
11079;DHT22;5592;49.234;7.268;2023-06-01T05:27:40;25.70;99.90
11079;DHT22;5592;49.234;7.268;2023-06-01T05:30:06;26.00;99.90
11079;DHT22;5592;49.234;7.268;2023-06-01T05:32:32;26.10;99.90
11079;DHT22;5592;49.234;7.268;2023-06-01T05:34:58;26.70;99.90
11079;DHT22;5592;49.234;7.268;2023-06-01T05:37:23;27.20;99.90
11079;DHT22;5592;49.234;7.268;2023-06-01T05:39:49;27.50;99.90
11079;DHT22;5592;49.234;7.268;2023-06-01T05:42:14;28.00;99.90
11079;DHT22;5592;49.234;7.268;2023-06-01T05:44:40;28.70;99.90
11079;DHT22;5592;49.234;7.268;2023-06-01T05:47:05;29.30;97.80
11079;DHT22;5592;49.234;7.268;2023-06-01T05:49:31;29.70;96.60
11079;DHT22;5592;49.234;7.268;2023-06-01T05:51:57;30.10;94.20
11079;DHT22;5592;49.234;7.268;2023-06-01T05:54:23;30.40;92.60
11079;DHT22;5592;49.234;7.268;2023-06-01T05:56:49;30.60;91.60
11079;DHT22;5592;49.234;7.268;2023-06-01T05:59:14;30.70;89.60
11079;DHT22;5592;49.234;7.268;2023-06-01T06:01:40;30.80;89.40
11079;DHT22;5592;49.234;7.268;2023-06-01T06:04:07;31.00;85.40
11079;DHT22;5592;49.234;7.268;2023-06-01T06:06:33;31.10;85.90
11079;DHT22;5592;49.234;7.268;2023-06-01T06:08:58;31.60;89.10
11079;DHT22;5592;49.234;7.268;2023-06-01T06:11:24;32.10;85.40
11079;DHT22;5592;49.234;7.268;2023-06-01T06:13:51;32.80;82.20
11079;DHT22;5592;49.234;7.268;2023-06-01T06:16:16;32.90;79.10
11079;DHT22;5592;49.234;7.268;2023-06-01T06:18:45;33.30;77.00
11079;DHT22;5592;49.234;7.268;2023-06-01T06:21:10;33.40;73.00
11079;DHT22;5592;49.234;7.268;2023-06-01T06:23:36;33.60;70.90
11079;DHT22;5592;49.234;7.268;2023-06-01T06:26:02;33.90;72.80
11079;DHT22;5592;49.234;7.268;2023-06-01T06:28:28;33.90;67.90
11079;DHT22;5592;49.234;7.268;2023-06-01T06:30:54;34.40;70.00
11079;DHT22;5592;49.234;7.268;2023-06-01T06:33:19;34.70;68.00
11079;DHT22;5592;49.234;7.268;2023-06-01T06:35:45;34.90;63.90
11079;DHT22;5592;49.234;7.268;2023-06-01T06:38:12;35.00;62.80
11079;DHT22;5592;49.234;7.268;2023-06-01T06:40:38;35.00;64.20
11079;DHT22;5592;49.234;7.268;2023-06-01T06:43:03;35.40;62.50
11079;DHT22;5592;49.234;7.268;2023-06-01T06:45:29;35.80;60.30
11079;DHT22;5592;49.234;7.268;2023-06-01T06:47:55;35.50;59.60
11079;DHT22;5592;49.234;7.268;2023-06-01T06:50:20;35.70;60.80
11079;DHT22;5592;49.234;7.268;2023-06-01T06:52:46;35.70;59.90
11079;DHT22;5592;49.234;7.268;2023-06-01T06:55:12;35.80;58.90
11079;DHT22;5592;49.234;7.268;2023-06-01T06:57:37;36.30;57.90
11079;DHT22;5592;49.234;7.268;2023-06-01T07:00:06;36.10;57.90
11079;DHT22;5592;49.234;7.268;2023-06-01T07:02:32;35.50;59.30
11079;DHT22;5592;49.234;7.268;2023-06-01T07:04:58;36.00;57.60
11079;DHT22;5592;49.234;7.268;2023-06-01T07:07:23;36.50;57.30
11079;DHT22;5592;49.234;7.268;2023-06-01T07:09:49;36.60;56.60
11079;DHT22;5592;49.234;7.268;2023-06-01T07:12:15;36.40;55.70
11079;DHT22;5592;49.234;7.268;2023-06-01T07:14:40;36.20;58.10
11079;DHT22;5592;49.234;7.268;2023-06-01T07:17:06;36.40;56.70
11079;DHT22;5592;49.234;7.268;2023-06-01T07:19:31;36.60;55.70
11079;DHT22;5592;49.234;7.268;2023-06-01T07:21:59;36.50;55.10
11079;DHT22;5592;49.234;7.268;2023-06-01T07:24:25;36.90;54.80
11079;DHT22;5592;49.234;7.268;2023-06-01T07:26:51;36.60;55.30
11079;DHT22;5592;49.234;7.268;2023-06-01T07:29:17;36.80;54.60
11079;DHT22;5592;49.234;7.268;2023-06-01T07:31:43;37.10;54.80
11079;DHT22;5592;49.234;7.268;2023-06-01T07:34:09;37.40;55.90
11079;DHT22;5592;49.234;7.268;2023-06-01T07:36:34;37.30;53.90
11079;DHT22;5592;49.234;7.268;2023-06-01T07:39:03;37.50;56.10
11079;DHT22;5592;49.234;7.268;2023-06-01T07:41:32;37.60;53.60
11079;DHT22;5592;49.234;7.268;2023-06-01T07:43:57;37.70;53.10
11079;DHT22;5592;49.234;7.268;2023-06-01T07:46:23;38.00;53.00
11079;DHT22;5592;49.234;7.268;2023-06-01T07:48:51;38.00;53.10
11079;DHT22;5592;49.234;7.268;2023-06-01T07:51:17;38.00;53.60
11079;DHT22;5592;49.234;7.268;2023-06-01T07:53:43;38.10;52.10
11079;DHT22;5592;49.234;7.268;2023-06-01T07:56:09;38.10;53.70
11079;DHT22;5592;49.234;7.268;2023-06-01T07:58:36;37.70;52.00
11079;DHT22;5592;49.234;7.268;2023-06-01T08:01:02;37.40;52.00
11079;DHT22;5592;49.234;7.268;2023-06-01T08:03:28;37.40;52.00
11079;DHT22;5592;49.234;7.268;2023-06-01T08:05:53;37.10;52.60
11079;DHT22;5592;49.234;7.268;2023-06-01T08:08:25;37.30;53.80
11079;DHT22;5592;49.234;7.268;2023-06-01T08:10:50;37.60;52.40
11079;DHT22;5592;49.234;7.268;2023-06-01T08:13:17;38.00;53.70
11079;DHT22;5592;49.234;7.268;2023-06-01T08:15:44;38.20;53.90
11079;DHT22;5592;49.234;7.268;2023-06-01T08:18:15;38.40;51.30
11079;DHT22;5592;49.234;7.268;2023-06-01T08:20:40;38.50;51.00
11079;DHT22;5592;49.234;7.268;2023-06-01T08:23:07;39.00;51.20
11079;DHT22;5592;49.234;7.268;2023-06-01T08:25:33;39.30;49.80
11079;DHT22;5592;49.234;7.268;2023-06-01T08:27:58;39.30;51.30
11079;DHT22;5592;49.234;7.268;2023-06-01T08:30:27;39.40;50.50
11079;DHT22;5592;49.234;7.268;2023-06-01T08:32:53;39.80;48.10
11079;DHT22;5592;49.234;7.268;2023-06-01T08:35:18;40.00;49.50
11079;DHT22;5592;49.234;7.268;2023-06-01T08:37:46;39.90;49.90
11079;DHT22;5592;49.234;7.268;2023-06-01T08:40:12;39.90;50.60
11079;DHT22;5592;49.234;7.268;2023-06-01T08:43:39;39.70;51.00
11079;DHT22;5592;49.234;7.268;2023-06-01T08:45:46;39.40;50.20
11079;DHT22;5592;49.234;7.268;2023-06-01T08:48:17;39.10;50.40
11079;DHT22;5592;49.234;7.268;2023-06-01T08:50:47;39.20;50.30
11079;DHT22;5592;49.234;7.268;2023-06-01T08:53:18;39.30;48.90
11079;DHT22;5592;49.234;7.268;2023-06-01T08:55:45;38.70;47.80
11079;DHT22;5592;49.234;7.268;2023-06-01T08:58:12;38.50;49.00
11079;DHT22;5592;49.234;7.268;2023-06-01T09:00:38;37.80;49.00
11079;DHT22;5592;49.234;7.268;2023-06-01T09:03:04;37.40;49.10
11079;DHT22;5592;49.234;7.268;2023-06-01T09:05:30;37.80;50.50
11079;DHT22;5592;49.234;7.268;2023-06-01T09:07:55;37.60;51.30
11079;DHT22;5592;49.234;7.268;2023-06-01T09:10:24;37.90;48.70
11079;DHT22;5592;49.234;7.268;2023-06-01T09:12:54;37.80;48.50
11079;DHT22;5592;49.234;7.268;2023-06-01T09:15:21;37.50;49.00
11079;DHT22;5592;49.234;7.268;2023-06-01T09:17:48;37.10;49.50
11079;DHT22;5592;49.234;7.268;2023-06-01T09:20:25;37.80;50.60
11079;DHT22;5592;49.234;7.268;2023-06-01T09:22:51;38.40;50.30
11079;DHT22;5592;49.234;7.268;2023-06-01T09:25:29;39.00;49.20
11079;DHT22;5592;49.234;7.268;2023-06-01T09:27:57;39.30;49.40
11079;DHT22;5592;49.234;7.268;2023-06-01T09:30:25;39.40;48.30
11079;DHT22;5592;49.234;7.268;2023-06-01T09:33:06;39.30;47.80
11079;DHT22;5592;49.234;7.268;2023-06-01T09:38:07;38.30;50.50
11079;DHT22;5592;49.234;7.268;2023-06-01T09:40:33;38.30;48.10
11079;DHT22;5592;49.234;7.268;2023-06-01T09:43:02;37.80;47.60
11079;DHT22;5592;49.234;7.268;2023-06-01T09:45:31;37.10;49.90
11079;DHT22;5592;49.234;7.268;2023-06-01T09:48:18;37.40;52.20
11079;DHT22;5592;49.234;7.268;2023-06-01T09:50:44;38.00;48.70
11079;DHT22;5592;49.234;7.268;2023-06-01T09:53:09;38.20;50.00
11079;DHT22;5592;49.234;7.268;2023-06-01T09:55:35;38.00;45.10
11079;DHT22;5592;49.234;7.268;2023-06-01T09:58:26;37.10;48.30
11079;DHT22;5592;49.234;7.268;2023-06-01T10:00:52;37.30;47.40
11079;DHT22;5592;49.234;7.268;2023-06-01T10:03:20;37.10;47.10
11079;DHT22;5592;49.234;7.268;2023-06-01T10:05:47;37.50;46.20
11079;DHT22;5592;49.234;7.268;2023-06-01T10:08:14;37.20;46.50
11079;DHT22;5592;49.234;7.268;2023-06-01T10:10:44;37.30;47.50
11079;DHT22;5592;49.234;7.268;2023-06-01T10:13:11;36.60;50.00
11079;DHT22;5592;49.234;7.268;2023-06-01T10:15:37;36.70;49.30
11079;DHT22;5592;49.234;7.268;2023-06-01T10:18:06;36.60;46.30
11079;DHT22;5592;49.234;7.268;2023-06-01T10:20:33;36.50;49.60
11079;DHT22;5592;49.234;7.268;2023-06-01T10:23:00;36.30;47.40
11079;DHT22;5592;49.234;7.268;2023-06-01T10:25:31;36.20;49.20
11079;DHT22;5592;49.234;7.268;2023-06-01T10:28:03;36.20;48.50
11079;DHT22;5592;49.234;7.268;2023-06-01T10:30:29;35.90;50.20
11079;DHT22;5592;49.234;7.268;2023-06-01T10:32:55;35.80;48.70
11079;DHT22;5592;49.234;7.268;2023-06-01T10:40:50;35.30;48.00
11079;DHT22;5592;49.234;7.268;2023-06-01T10:46:42;35.70;52.20
11079;DHT22;5592;49.234;7.268;2023-06-01T10:49:11;35.40;47.90
11079;DHT22;5592;49.234;7.268;2023-06-01T10:51:37;34.80;49.00
11079;DHT22;5592;49.234;7.268;2023-06-01T10:57:20;34.40;51.60
11079;DHT22;5592;49.234;7.268;2023-06-01T11:05:47;34.00;50.50
11079;DHT22;5592;49.234;7.268;2023-06-01T11:13:18;32.20;50.30
11079;DHT22;5592;49.234;7.268;2023-06-01T11:21:21;31.10;52.20
11079;DHT22;5592;49.234;7.268;2023-06-01T11:23:49;31.10;51.40
11079;DHT22;5592;49.234;7.268;2023-06-01T11:26:16;31.20;50.80
11079;DHT22;5592;49.234;7.268;2023-06-01T11:28:42;31.00;50.90
11079;DHT22;5592;49.234;7.268;2023-06-01T11:31:10;30.50;51.30
11079;DHT22;5592;49.234;7.268;2023-06-01T11:33:40;30.30;51.40
11079;DHT22;5592;49.234;7.268;2023-06-01T11:36:07;30.40;50.80
11079;DHT22;5592;49.234;7.268;2023-06-01T11:38:40;30.50;53.00
11079;DHT22;5592;49.234;7.268;2023-06-01T11:41:07;30.40;49.10
11079;DHT22;5592;49.234;7.268;2023-06-01T11:43:34;29.60;50.40
11079;DHT22;5592;49.234;7.268;2023-06-01T11:46:04;29.20;52.20
11079;DHT22;5592;49.234;7.268;2023-06-01T11:48:30;29.50;51.10
11079;DHT22;5592;49.234;7.268;2023-06-01T11:50:57;29.10;51.60
11079;DHT22;5592;49.234;7.268;2023-06-01T11:53:24;29.10;53.30
11079;DHT22;5592;49.234;7.268;2023-06-01T11:55:54;29.40;53.10
11079;DHT22;5592;49.234;7.268;2023-06-01T11:58:27;29.80;51.50
11079;DHT22;5592;49.234;7.268;2023-06-01T12:00:53;29.60;55.00
11079;DHT22;5592;49.234;7.268;2023-06-01T12:03:19;29.70;52.70
11079;DHT22;5592;49.234;7.268;2023-06-01T12:05:45;30.00;52.60
11079;DHT22;5592;49.234;7.268;2023-06-01T12:08:30;30.00;51.40
11079;DHT22;5592;49.234;7.268;2023-06-01T12:10:58;29.80;51.50
11079;DHT22;5592;49.234;7.268;2023-06-01T12:13:24;29.30;59.10
11079;DHT22;5592;49.234;7.268;2023-06-01T12:15:51;29.50;54.10
11079;DHT22;5592;49.234;7.268;2023-06-01T12:18:28;29.70;51.80
11079;DHT22;5592;49.234;7.268;2023-06-01T12:20:55;29.50;51.60
11079;DHT22;5592;49.234;7.268;2023-06-01T12:23:20;29.30;51.50
11079;DHT22;5592;49.234;7.268;2023-06-01T12:25:57;29.40;57.90
11079;DHT22;5592;49.234;7.268;2023-06-01T12:28:25;29.30;53.00
11079;DHT22;5592;49.234;7.268;2023-06-01T12:31:13;29.20;52.60
11079;DHT22;5592;49.234;7.268;2023-06-01T12:33:39;29.10;55.90
11079;DHT22;5592;49.234;7.268;2023-06-01T12:36:06;29.10;52.20
11079;DHT22;5592;49.234;7.268;2023-06-01T12:41:08;29.00;52.30
11079;DHT22;5592;49.234;7.268;2023-06-01T12:43:35;28.80;52.70
11079;DHT22;5592;49.234;7.268;2023-06-01T12:46:01;28.80;56.00
11079;DHT22;5592;49.234;7.268;2023-06-01T12:48:32;28.70;55.10
11079;DHT22;5592;49.234;7.268;2023-06-01T12:50:59;28.70;57.00
11079;DHT22;5592;49.234;7.268;2023-06-01T12:53:24;28.70;58.50
11079;DHT22;5592;49.234;7.268;2023-06-01T12:55:50;29.00;54.30
11079;DHT22;5592;49.234;7.268;2023-06-01T12:58:15;28.90;54.00
11079;DHT22;5592;49.234;7.268;2023-06-01T13:00:41;28.80;53.30
11079;DHT22;5592;49.234;7.268;2023-06-01T13:03:07;28.50;53.80
11079;DHT22;5592;49.234;7.268;2023-06-01T13:05:34;28.50;52.30
11079;DHT22;5592;49.234;7.268;2023-06-01T13:07:59;28.20;51.30
11079;DHT22;5592;49.234;7.268;2023-06-01T13:10:26;28.00;52.60
11079;DHT22;5592;49.234;7.268;2023-06-01T13:12:52;27.90;54.30
11079;DHT22;5592;49.234;7.268;2023-06-01T13:15:17;27.90;52.40
11079;DHT22;5592;49.234;7.268;2023-06-01T13:17:43;27.80;53.20
11079;DHT22;5592;49.234;7.268;2023-06-01T13:20:09;27.90;54.60
11079;DHT22;5592;49.234;7.268;2023-06-01T13:22:37;28.20;54.30
11079;DHT22;5592;49.234;7.268;2023-06-01T13:25:03;28.40;54.50
11079;DHT22;5592;49.234;7.268;2023-06-01T13:27:30;28.60;52.50
11079;DHT22;5592;49.234;7.268;2023-06-01T13:29:55;28.30;51.70
11079;DHT22;5592;49.234;7.268;2023-06-01T13:32:21;28.10;53.20
11079;DHT22;5592;49.234;7.268;2023-06-01T13:34:46;27.90;55.30
11079;DHT22;5592;49.234;7.268;2023-06-01T13:37:12;27.80;54.10
11079;DHT22;5592;49.234;7.268;2023-06-01T13:39:38;27.70;54.20
11079;DHT22;5592;49.234;7.268;2023-06-01T13:42:04;27.80;54.10
11079;DHT22;5592;49.234;7.268;2023-06-01T13:44:32;28.10;58.30
11079;DHT22;5592;49.234;7.268;2023-06-01T13:46:58;28.10;57.10
11079;DHT22;5592;49.234;7.268;2023-06-01T13:49:24;28.20;56.40
11079;DHT22;5592;49.234;7.268;2023-06-01T13:51:49;28.10;54.50
11079;DHT22;5592;49.234;7.268;2023-06-01T13:54:15;28.10;56.70
11079;DHT22;5592;49.234;7.268;2023-06-01T13:56:40;28.20;55.30
11079;DHT22;5592;49.234;7.268;2023-06-01T13:59:06;28.20;55.10
11079;DHT22;5592;49.234;7.268;2023-06-01T14:01:31;28.10;54.60
11079;DHT22;5592;49.234;7.268;2023-06-01T14:03:57;28.00;55.80
11079;DHT22;5592;49.234;7.268;2023-06-01T14:06:22;28.10;56.00
11079;DHT22;5592;49.234;7.268;2023-06-01T14:08:48;27.90;53.20
11079;DHT22;5592;49.234;7.268;2023-06-01T14:11:14;27.70;53.30
11079;DHT22;5592;49.234;7.268;2023-06-01T14:13:40;27.60;53.90
11079;DHT22;5592;49.234;7.268;2023-06-01T14:16:05;27.50;53.20
11079;DHT22;5592;49.234;7.268;2023-06-01T14:18:32;27.60;54.70
11079;DHT22;5592;49.234;7.268;2023-06-01T14:21:00;27.60;55.50
11079;DHT22;5592;49.234;7.268;2023-06-01T14:23:26;27.60;52.90
11079;DHT22;5592;49.234;7.268;2023-06-01T14:25:52;27.50;52.40
11079;DHT22;5592;49.234;7.268;2023-06-01T14:28:17;27.10;55.50
11079;DHT22;5592;49.234;7.268;2023-06-01T14:30:43;27.10;56.50
11079;DHT22;5592;49.234;7.268;2023-06-01T14:33:08;27.20;54.90
11079;DHT22;5592;49.234;7.268;2023-06-01T14:35:34;27.20;54.90
11079;DHT22;5592;49.234;7.268;2023-06-01T14:38:00;27.20;55.50
11079;DHT22;5592;49.234;7.268;2023-06-01T14:40:25;27.20;54.70
11079;DHT22;5592;49.234;7.268;2023-06-01T14:42:51;27.30;55.40
11079;DHT22;5592;49.234;7.268;2023-06-01T14:45:17;27.40;55.40
11079;DHT22;5592;49.234;7.268;2023-06-01T14:47:44;27.40;54.00
11079;DHT22;5592;49.234;7.268;2023-06-01T14:50:10;27.50;56.50
11079;DHT22;5592;49.234;7.268;2023-06-01T14:52:36;27.40;55.10
11079;DHT22;5592;49.234;7.268;2023-06-01T14:55:02;27.30;55.40
11079;DHT22;5592;49.234;7.268;2023-06-01T14:57:27;27.30;56.40
11079;DHT22;5592;49.234;7.268;2023-06-01T14:59:53;27.20;55.30
11079;DHT22;5592;49.234;7.268;2023-06-01T15:02:18;27.10;55.20
11079;DHT22;5592;49.234;7.268;2023-06-01T15:04:44;27.10;54.90
11079;DHT22;5592;49.234;7.268;2023-06-01T15:07:10;27.10;53.40
11079;DHT22;5592;49.234;7.268;2023-06-01T15:09:38;27.10;54.00
11079;DHT22;5592;49.234;7.268;2023-06-01T15:12:04;27.00;55.80
11079;DHT22;5592;49.234;7.268;2023-06-01T15:14:30;27.10;55.30
11079;DHT22;5592;49.234;7.268;2023-06-01T15:16:55;26.90;54.50
11079;DHT22;5592;49.234;7.268;2023-06-01T15:19:21;26.90;54.10
11079;DHT22;5592;49.234;7.268;2023-06-01T15:21:46;26.90;54.80
11079;DHT22;5592;49.234;7.268;2023-06-01T15:24:12;26.90;56.60
11079;DHT22;5592;49.234;7.268;2023-06-01T15:26:37;26.80;54.20
11079;DHT22;5592;49.234;7.268;2023-06-01T15:29:03;26.70;52.00
11079;DHT22;5592;49.234;7.268;2023-06-01T15:31:28;26.60;55.40
11079;DHT22;5592;49.234;7.268;2023-06-01T15:33:54;26.60;54.70
11079;DHT22;5592;49.234;7.268;2023-06-01T15:36:20;26.60;54.60
11079;DHT22;5592;49.234;7.268;2023-06-01T15:38:45;26.60;52.70
11079;DHT22;5592;49.234;7.268;2023-06-01T15:41:11;26.60;53.00
11079;DHT22;5592;49.234;7.268;2023-06-01T15:43:36;26.60;54.60
11079;DHT22;5592;49.234;7.268;2023-06-01T15:46:03;26.40;56.10
11079;DHT22;5592;49.234;7.268;2023-06-01T15:48:29;26.30;54.80
11079;DHT22;5592;49.234;7.268;2023-06-01T15:50:54;26.30;56.30
11079;DHT22;5592;49.234;7.268;2023-06-01T15:53:20;26.30;57.50
11079;DHT22;5592;49.234;7.268;2023-06-01T15:55:45;26.30;58.00
11079;DHT22;5592;49.234;7.268;2023-06-01T15:58:11;26.30;55.90
11079;DHT22;5592;49.234;7.268;2023-06-01T16:00:37;26.20;57.40
11079;DHT22;5592;49.234;7.268;2023-06-01T16:03:02;26.20;57.00
11079;DHT22;5592;49.234;7.268;2023-06-01T16:05:28;26.30;56.30
11079;DHT22;5592;49.234;7.268;2023-06-01T16:07:53;26.30;58.20
11079;DHT22;5592;49.234;7.268;2023-06-01T16:10:19;26.30;56.60
11079;DHT22;5592;49.234;7.268;2023-06-01T16:12:44;26.30;56.70
11079;DHT22;5592;49.234;7.268;2023-06-01T16:15:10;26.20;58.60
11079;DHT22;5592;49.234;7.268;2023-06-01T16:17:36;26.10;57.10
11079;DHT22;5592;49.234;7.268;2023-06-01T16:20:01;26.10;56.80
11079;DHT22;5592;49.234;7.268;2023-06-01T16:22:27;26.00;58.00
11079;DHT22;5592;49.234;7.268;2023-06-01T16:24:52;26.00;58.50
11079;DHT22;5592;49.234;7.268;2023-06-01T16:27:18;26.00;58.90
11079;DHT22;5592;49.234;7.268;2023-06-01T16:29:44;25.90;57.60
11079;DHT22;5592;49.234;7.268;2023-06-01T16:32:09;25.90;57.90
11079;DHT22;5592;49.234;7.268;2023-06-01T16:34:35;25.90;58.70